Date,TemperatureHighF,TemperatureAvgF,TemperatureLowF,DewpointHighF,DewpointAvgF,DewpointLowF,HumidityHigh,HumidityAvg,HumidityLow,PressureMaxIn,PressureMinIn,WindSpeedMaxMPH,WindSpeedAvgMPH,GustSpeedMaxMPH,PrecipitationSumIn
2013-10-1,56,49,46,51,46,43,98,90,71,30.16,29.95,6,0,8,0.47
2013-10-2,52,49,45,50,46,44,96,92,84,30.19,30.06,1,0,6,0.06
2013-10-3,53,48,42,51,46,41,98,94,87,30.47,30.19,0,0,0,0.00
2013-10-4,63,48,37,53,44,36,98,88,62,30.49,30.37,1,0,2,0.01
2013-10-5,67,52,42,56,48,41,98,87,61,30.37,30.14,2,0,3,0.01
2013-10-6,73,55,44,60,48,36,98,79,29,30.14,29.91,1,0,6,0.00
2013-10-7,58,52,50,52,49,46,97,91,74,30.07,29.93,11,0,13,0.31
2013-10-8,54,48,40,48,45,39,96,88,77,30.09,29.98,12,0,12,0.07
2013-10-9,56,45,36,49,42,35,99,90,70,30.16,29.97,2,0,2,0.01
2013-10-10,58,49,38,51,46,34,98,90,64,30.08,29.88,2,0,14,0.13
2013-10-11,56,49,42,51,47,41,98,93,74,30.16,30.08,0,0,2,0.01
2013-10-12,53,49,45,50,47,44,97,95,87,30.22,30.08,2,0,3,0.09
2013-10-13,56,46,40,49,44,39,98,93,75,30.39,30.22,1,0,2,0.00
2013-10-14,59,45,36,49,42,35,99,89,66,30.43,30.38,0,0,1,0.01
2013-10-15,62,47,38,54,44,37,98,89,67,30.40,30.19,0,0,1,0.00
2013-10-16,51,46,40,49,44,39,98,95,89,30.22,30.16,2,0,2,0.01
2013-10-17,54,46,42,49,44,40,97,94,82,30.29,30.22,1,0,2,0.00
2013-10-18,52,44,38,50,42,37,98,95,88,30.26,30.17,1,0,2,0.01
2013-10-19,48,43,38,47,43,37,99,98,96,30.21,30.16,0,0,1,0.01
2013-10-20,48,45,42,47,44,42,99,98,96,30.22,30.16,1,0,2,0.00
2013-10-21,50,45,42,48,44,41,99,97,91,30.18,30.11,1,0,2,0.01
2013-10-22,52,45,42,50,44,41,99,96,89,30.13,30.05,1,0,2,0.01
2013-10-23,56,44,36,52,43,35,99,94,82,30.07,30.00,1,0,1,0.01
2013-10-24,50,44,38,49,43,37,99,97,94,30.15,30.03,0,0,0,0.01
2013-10-25,52,48,44,51,47,44,99,98,97,30.32,30.15,0,0,1,0.01
2013-10-26,48,46,44,47,45,42,99,96,93,30.35,30.18,2,0,5,0.00
2013-10-27,48,45,42,47,44,42,98,97,92,30.21,29.92,2,0,6,0.15
2013-10-28,56,44,37,50,41,35,99,88,58,29.97,29.87,0,0,5,0.00
2013-10-29,57,41,33,45,37,32,98,86,53,30.07,29.96,1,0,1,0.01
2013-10-30,59,45,35,52,40,34,98,84,50,30.16,30.05,6,0,6,0.01
2013-10-31,54,50,46,53,48,42,98,95,74,30.28,30.11,1,0,5,0.26